createdAt,value
2022-11-16T00:01:05.890Z,17.02
2022-11-16T00:04:11.715Z,17.01
2022-11-16T00:07:13.343Z,16.97
2022-11-16T00:10:15.317Z,16.97
2022-11-16T00:13:16.875Z,16.95
2022-11-16T00:16:18.429Z,16.95
2022-11-16T00:19:20.076Z,16.94
2022-11-16T00:22:21.651Z,16.92
2022-11-16T00:25:23.143Z,16.93
2022-11-16T00:28:24.633Z,16.91
2022-11-16T00:31:26.161Z,16.91
2022-11-16T00:34:27.707Z,16.89
2022-11-16T00:37:29.204Z,16.89
2022-11-16T00:40:30.718Z,16.87
2022-11-16T00:43:32.604Z,16.87
2022-11-16T00:46:34.147Z,16.86
2022-11-16T00:49:38.339Z,16.85
2022-11-16T00:52:39.857Z,16.85
2022-11-16T00:55:44.258Z,16.84
2022-11-16T00:58:45.838Z,16.84
2022-11-16T01:01:47.783Z,16.83
2022-11-16T01:04:49.351Z,16.82
2022-11-16T01:07:51.378Z,16.83
2022-11-16T01:10:52.932Z,16.81
2022-11-16T01:13:55.593Z,16.83
2022-11-16T01:16:57.056Z,16.80
2022-11-16T01:19:58.660Z,16.82
2022-11-16T01:23:00.212Z,16.80
2022-11-16T01:26:01.812Z,16.80
2022-11-16T01:29:05.115Z,16.79
2022-11-16T01:32:11.047Z,16.79
2022-11-16T01:35:18.361Z,16.80
2022-11-16T01:38:24.831Z,16.78
2022-11-16T01:41:29.065Z,16.79
2022-11-16T01:44:35.841Z,16.77
2022-11-16T01:47:47.983Z,16.78
2022-11-16T01:50:56.287Z,16.77
2022-11-16T01:54:01.077Z,16.76
2022-11-16T01:57:08.468Z,16.76
2022-11-16T02:00:18.040Z,16.75
2022-11-16T02:03:30.604Z,16.74
2022-11-16T02:06:47.546Z,16.75
2022-11-16T02:10:01.230Z,16.71
2022-11-16T02:13:23.725Z,16.73
2022-11-16T02:16:28.741Z,16.72
2022-11-16T02:20:08.779Z,16.71
2022-11-16T02:23:37.805Z,16.71
2022-11-16T02:26:54.508Z,16.68
2022-11-16T02:29:57.437Z,16.68
2022-11-16T02:32:58.863Z,16.67
2022-11-16T02:36:04.843Z,16.67
2022-11-16T02:39:12.181Z,16.68
2022-11-16T02:42:20.421Z,16.68
2022-11-16T02:45:27.030Z,16.67
2022-11-16T02:48:35.702Z,16.67
2022-11-16T02:51:39.901Z,16.66
2022-11-16T02:54:41.528Z,16.65
2022-11-16T02:57:43.063Z,16.65
2022-11-16T03:01:08.312Z,16.67
2022-11-16T03:04:16.722Z,16.66
2022-11-16T03:07:25.641Z,16.65
2022-11-16T03:10:48.875Z,16.64
2022-11-16T03:13:52.168Z,16.64
2022-11-16T03:16:57.431Z,16.64
2022-11-16T03:20:20.557Z,16.64
2022-11-16T03:23:22.309Z,16.62
2022-11-16T03:26:30.246Z,16.62
2022-11-16T03:29:47.250Z,16.63
2022-11-16T03:32:59.121Z,16.60
2022-11-16T03:36:01.587Z,16.61
2022-11-16T03:39:12.899Z,16.62
2022-11-16T03:42:15.743Z,16.61
2022-11-16T03:45:19.934Z,16.61
2022-11-16T03:48:24.252Z,16.61
2022-11-16T03:51:26.668Z,16.60
2022-11-16T03:54:29.184Z,16.60
2022-11-16T03:57:30.909Z,16.60
2022-11-16T04:00:34.449Z,16.58
2022-11-16T04:03:43.372Z,16.59
2022-11-16T04:07:04.713Z,16.59
2022-11-16T04:10:25.546Z,16.60
2022-11-16T04:13:48.777Z,16.62
2022-11-16T04:17:09.893Z,16.61
2022-11-16T04:20:32.625Z,16.61
2022-11-16T04:23:52.878Z,16.61
2022-11-16T04:27:19.150Z,16.61
2022-11-16T04:30:20.794Z,16.62
2022-11-16T04:33:41.414Z,16.63
2022-11-16T04:37:01.717Z,16.62
2022-11-16T04:40:05.016Z,16.62
2022-11-16T04:43:06.686Z,16.63
2022-11-16T04:46:30.965Z,16.63
2022-11-16T04:49:33.225Z,16.64
2022-11-16T04:52:34.765Z,16.64
2022-11-16T04:55:36.585Z,16.66
2022-11-16T04:58:38.095Z,16.66
2022-11-16T05:01:58.567Z,16.69
2022-11-16T05:05:00.133Z,16.71
2022-11-16T05:08:04.080Z,16.74
2022-11-16T05:11:07.091Z,16.75
2022-11-16T05:14:09.992Z,16.76
2022-11-16T05:17:13.562Z,16.77
2022-11-16T05:20:34.818Z,16.78
2022-11-16T05:23:57.454Z,16.77
2022-11-16T05:27:07.092Z,16.78
2022-11-16T05:30:09.059Z,16.77
2022-11-16T05:33:10.626Z,16.77
2022-11-16T05:36:15.885Z,16.75
2022-11-16T05:39:17.919Z,16.76
2022-11-16T05:42:19.590Z,16.75
2022-11-16T05:45:21.441Z,16.75
2022-11-16T05:48:24.046Z,16.75
2022-11-16T05:51:25.879Z,16.73
2022-11-16T05:54:31.143Z,16.73
2022-11-16T05:57:32.823Z,16.71
2022-11-16T06:00:35.259Z,16.72
2022-11-16T06:03:37.310Z,16.72
2022-11-16T06:06:39.705Z,16.74
2022-11-16T06:09:41.507Z,16.74
2022-11-16T06:12:50.866Z,16.76
2022-11-16T06:15:52.849Z,16.78
2022-11-16T06:18:54.466Z,16.80
2022-11-16T06:21:56.099Z,16.79
2022-11-16T06:24:58.752Z,16.80
2022-11-16T06:28:05.246Z,16.79
2022-11-16T06:31:09.328Z,16.79
2022-11-16T06:34:15.460Z,16.82
2022-11-16T06:37:17.009Z,16.83
2022-11-16T06:40:18.626Z,16.85
2022-11-16T06:43:21.230Z,16.88
2022-11-16T06:46:24.727Z,16.89
2022-11-16T06:49:27.404Z,16.91
2022-11-16T06:52:32.326Z,16.91
2022-11-16T06:55:33.912Z,16.91
2022-11-16T06:58:35.769Z,16.91
2022-11-16T07:01:38.637Z,16.93
2022-11-16T07:04:45.795Z,16.92
2022-11-16T07:07:47.427Z,16.91
2022-11-16T07:10:48.996Z,16.92
2022-11-16T07:13:50.630Z,16.91
2022-11-16T07:16:56.399Z,16.90
2022-11-16T07:20:01.053Z,16.89
2022-11-16T07:23:03.975Z,16.89
2022-11-16T07:26:08.402Z,16.88
2022-11-16T07:29:18.024Z,16.87
2022-11-16T07:32:39.899Z,16.86
2022-11-16T07:35:49.471Z,16.85
2022-11-16T07:38:51.833Z,16.84
2022-11-16T07:41:54.275Z,16.83
2022-11-16T07:45:01.978Z,16.83
2022-11-16T07:48:03.578Z,16.83
2022-11-16T07:51:23.975Z,16.83
2022-11-16T07:54:42.415Z,16.81
2022-11-16T07:57:46.799Z,16.81
2022-11-16T08:00:50.650Z,16.81
2022-11-16T08:03:53.722Z,16.80
2022-11-16T08:06:55.415Z,16.80
2022-11-16T08:09:58.234Z,16.79
2022-11-16T08:12:59.979Z,16.78
2022-11-16T08:16:03.079Z,16.78
2022-11-16T08:19:06.216Z,16.77
2022-11-16T08:22:08.639Z,16.76
2022-11-16T08:25:10.894Z,16.75
2022-11-16T08:28:15.639Z,16.75
2022-11-16T08:31:20.997Z,16.76
2022-11-16T08:34:26.037Z,16.73
2022-11-16T08:37:33.749Z,16.73
2022-11-16T08:40:37.056Z,16.71
2022-11-16T08:43:40.434Z,16.71
2022-11-16T08:46:42.844Z,16.72
2022-11-16T08:50:04.091Z,16.71
2022-11-16T08:53:05.744Z,16.70
2022-11-16T08:56:09.833Z,16.70
2022-11-16T08:59:12.508Z,16.69
2022-11-16T09:02:25.244Z,16.69
2022-11-16T09:05:26.728Z,16.69
2022-11-16T09:08:28.205Z,16.69
2022-11-16T09:11:29.822Z,16.69
2022-11-16T09:14:31.316Z,16.68
2022-11-16T09:17:32.864Z,16.68
2022-11-16T09:20:34.349Z,16.68
2022-11-16T09:23:36.560Z,16.68
2022-11-16T09:26:38.113Z,16.67
2022-11-16T09:29:39.631Z,16.67
2022-11-16T09:32:41.108Z,16.68
2022-11-16T09:35:42.671Z,16.67
2022-11-16T09:42:33.126Z,16.68
2022-11-16T09:46:03.929Z,16.67
2022-11-16T09:49:47.153Z,16.65
2022-11-16T09:52:55.298Z,16.64
2022-11-16T09:56:24.069Z,16.65
2022-11-16T09:59:46.482Z,16.64
2022-11-16T10:02:58.015Z,16.63
2022-11-16T10:06:03.218Z,16.63
2022-11-16T10:09:05.397Z,16.62
2022-11-16T10:12:29.896Z,16.63
2022-11-16T10:15:44.667Z,16.62
2022-11-16T10:19:16.660Z,16.62
2022-11-16T10:23:03.531Z,16.61
2022-11-16T10:26:17.200Z,16.60
2022-11-16T10:29:43.625Z,16.60
2022-11-16T10:32:53.605Z,16.57
2022-11-16T10:35:55.857Z,16.56
2022-11-16T10:39:00.117Z,16.57
2022-11-16T10:42:07.734Z,16.55
2022-11-16T10:45:21.723Z,16.55
2022-11-16T10:48:39.585Z,16.55
2022-11-16T10:51:41.053Z,16.55
2022-11-16T10:54:44.421Z,16.52
2022-11-16T10:58:00.358Z,16.53
2022-11-16T11:01:02.907Z,16.52
2022-11-16T11:04:13.717Z,16.52
2022-11-16T11:07:29.068Z,16.52
2022-11-16T11:10:34.256Z,16.52
2022-11-16T11:13:35.973Z,16.50
2022-11-16T11:16:38.146Z,16.49
2022-11-16T11:19:39.582Z,16.48
2022-11-16T11:22:50.224Z,16.50
2022-11-16T11:26:00.179Z,16.50
2022-11-16T11:29:06.000Z,16.49
2022-11-16T11:32:16.941Z,16.48
2022-11-16T11:35:24.596Z,16.47
2022-11-16T11:38:26.174Z,16.47
2022-11-16T11:41:33.483Z,16.46
2022-11-16T11:44:50.268Z,16.46
2022-11-16T11:48:31.131Z,16.46
2022-11-16T11:51:40.718Z,16.45
2022-11-16T11:54:46.686Z,16.46
2022-11-16T11:57:53.585Z,16.46
2022-11-16T12:01:40.103Z,16.45
2022-11-16T12:04:44.510Z,16.45
2022-11-16T12:07:49.007Z,16.46
2022-11-16T12:11:03.135Z,16.46
2022-11-16T12:14:13.728Z,16.47
2022-11-16T12:17:29.296Z,16.46
2022-11-16T12:20:41.797Z,16.46
2022-11-16T12:24:04.243Z,16.46
2022-11-16T12:27:53.932Z,16.46
2022-11-16T12:31:01.418Z,16.45
2022-11-16T12:34:40.613Z,16.45
2022-11-16T12:38:30.285Z,16.46
2022-11-16T12:41:54.424Z,16.46
2022-11-16T12:45:27.608Z,16.48
2022-11-16T12:48:59.299Z,16.47
2022-11-16T12:52:09.811Z,16.48
2022-11-16T12:55:28.390Z,16.46
2022-11-16T12:58:57.135Z,16.48
2022-11-16T13:02:23.031Z,16.48
2022-11-16T13:05:36.545Z,16.48
2022-11-16T13:08:48.450Z,16.47
2022-11-16T13:11:55.937Z,16.46
2022-11-16T13:15:00.532Z,16.47
2022-11-16T13:18:05.316Z,16.46
2022-11-16T13:21:15.680Z,16.48
2022-11-16T13:24:40.095Z,16.47
2022-11-16T13:27:45.255Z,16.46
2022-11-16T13:31:11.280Z,16.45
2022-11-16T13:34:21.879Z,16.45
2022-11-16T13:37:38.767Z,16.44
2022-11-16T13:40:40.754Z,16.43
2022-11-16T13:43:49.369Z,16.43
2022-11-16T13:47:04.375Z,16.42
2022-11-16T13:50:16.627Z,16.41
2022-11-16T13:56:53.595Z,16.40
2022-11-16T14:00:01.087Z,16.40
2022-11-16T14:03:11.739Z,16.39
2022-11-16T14:06:13.181Z,16.38
2022-11-16T14:09:45.262Z,16.39
2022-11-16T14:12:54.333Z,16.39
2022-11-16T14:16:17.732Z,16.38
2022-11-16T14:19:54.878Z,16.38
2022-11-16T14:23:11.636Z,16.36
2022-11-16T14:26:47.389Z,16.35
2022-11-16T14:29:55.824Z,16.35
2022-11-16T14:32:57.891Z,16.33
2022-11-16T14:36:00.883Z,16.33
2022-11-16T14:39:29.463Z,16.34
2022-11-16T14:43:01.846Z,16.34
2022-11-16T14:46:09.345Z,16.32
2022-11-16T14:49:16.768Z,16.30
2022-11-16T14:52:29.107Z,16.31
2022-11-16T14:55:30.583Z,16.29
2022-11-16T14:58:32.082Z,16.28
2022-11-16T15:01:38.758Z,16.28
2022-11-16T15:04:40.354Z,16.28
2022-11-16T15:07:43.372Z,16.27
2022-11-16T15:10:51.049Z,16.29
2022-11-16T15:13:54.809Z,16.27
2022-11-16T15:16:58.750Z,16.27
2022-11-16T15:20:04.122Z,16.27
2022-11-16T15:23:14.516Z,16.26
2022-11-16T15:26:21.523Z,16.26
2022-11-16T15:29:24.546Z,16.26
2022-11-16T15:32:26.109Z,16.24
2022-11-16T15:35:34.347Z,16.24
2022-11-16T15:38:37.518Z,16.23
2022-11-16T15:41:39.759Z,16.22
2022-11-16T15:44:42.633Z,16.23
2022-11-16T15:47:46.990Z,16.24
2022-11-16T15:51:13.624Z,16.26
2022-11-16T15:54:23.558Z,16.26
2022-11-16T15:57:25.133Z,16.17
2022-11-16T16:00:27.942Z,16.08
2022-11-16T16:03:32.938Z,16.07
2022-11-16T16:06:53.534Z,16.09
2022-11-16T16:10:12.896Z,16.13
2022-11-16T16:13:26.839Z,16.18
2022-11-16T16:16:39.022Z,16.20
2022-11-16T16:19:42.990Z,16.26
2022-11-16T16:22:44.750Z,16.28
2022-11-16T16:25:50.494Z,16.29
2022-11-16T16:28:52.430Z,16.33
2022-11-16T16:31:55.603Z,16.36
2022-11-16T16:34:59.715Z,16.39
2022-11-16T16:38:01.579Z,16.40
2022-11-16T16:41:05.035Z,16.42
2022-11-16T16:44:13.904Z,16.45
2022-11-16T16:47:16.947Z,16.44
2022-11-16T16:50:18.444Z,16.46
2022-11-16T16:53:19.930Z,16.49
2022-11-16T16:56:21.486Z,16.50
2022-11-16T16:59:23.409Z,16.51
2022-11-16T17:02:26.729Z,16.52
2022-11-16T17:05:30.033Z,16.56
2022-11-16T17:08:38.912Z,16.56
2022-11-16T17:11:40.384Z,16.55
2022-11-16T17:14:42.039Z,16.55
2022-11-16T17:17:43.549Z,16.54
2022-11-16T17:20:45.557Z,16.56
2022-11-16T17:23:47.292Z,16.56
2022-11-16T17:26:48.977Z,16.55
2022-11-16T17:29:50.543Z,16.55
2022-11-16T17:32:52.340Z,16.57
2022-11-16T17:35:55.968Z,16.58
2022-11-16T17:38:58.358Z,16.59
2022-11-16T17:41:59.819Z,16.59
2022-11-16T17:45:02.411Z,16.61
2022-11-16T17:48:05.140Z,16.61
2022-11-16T17:51:06.613Z,16.61
2022-11-16T17:54:08.117Z,16.63
2022-11-16T17:57:09.689Z,16.62
2022-11-16T18:00:11.877Z,16.64
2022-11-16T18:03:13.385Z,16.63
2022-11-16T18:06:20.406Z,16.64
2022-11-16T18:09:21.909Z,16.63
2022-11-16T18:12:23.375Z,16.64
2022-11-16T18:15:29.589Z,16.65
2022-11-16T18:18:31.382Z,16.66
2022-11-16T18:21:39.405Z,16.70
2022-11-16T18:24:40.925Z,16.71
2022-11-16T18:27:42.459Z,16.75
2022-11-16T18:30:43.986Z,16.76
2022-11-16T18:33:46.055Z,16.79
2022-11-16T18:36:49.018Z,16.79
2022-11-16T18:39:50.475Z,16.81
2022-11-16T18:42:51.976Z,16.82
2022-11-16T18:45:53.424Z,16.85
2022-11-16T18:48:55.625Z,16.86
2022-11-16T18:51:57.272Z,16.86
2022-11-16T18:54:58.770Z,16.88
2022-11-16T18:58:00.297Z,16.92
2022-11-16T19:01:03.592Z,16.94
2022-11-16T19:04:07.459Z,16.97
2022-11-16T19:07:09.029Z,16.99
2022-11-16T19:10:10.657Z,17.04
2022-11-16T19:13:13.048Z,17.08
2022-11-16T19:16:14.640Z,17.10
2022-11-16T19:19:16.130Z,17.13
2022-11-16T19:22:18.174Z,17.15
2022-11-16T19:25:19.830Z,17.16
2022-11-16T19:28:21.355Z,17.17
2022-11-16T19:31:31.392Z,17.19
2022-11-16T19:34:33.604Z,17.17
2022-11-16T19:37:35.204Z,17.19
2022-11-16T19:40:39.324Z,17.20
2022-11-16T19:43:41.169Z,17.21
2022-11-16T19:46:42.669Z,17.22
2022-11-16T19:49:46.068Z,17.23
2022-11-16T19:52:47.556Z,17.26
2022-11-16T19:55:55.255Z,17.31
2022-11-16T19:58:57.144Z,17.31
2022-11-16T20:01:58.730Z,17.32
2022-11-16T20:05:00.240Z,17.33
2022-11-16T20:08:01.759Z,17.33
2022-11-16T20:11:11.633Z,17.36
2022-11-16T20:14:14.791Z,17.34
2022-11-16T20:17:16.311Z,17.37
2022-11-16T20:20:17.798Z,17.37
2022-11-16T20:23:19.729Z,17.38
2022-11-16T20:26:21.428Z,17.39
2022-11-16T20:29:23.224Z,17.38
2022-11-16T20:32:25.263Z,17.39
2022-11-16T20:35:26.759Z,17.41
2022-11-16T20:38:28.270Z,17.41
2022-11-16T20:41:31.001Z,17.44
2022-11-16T20:44:32.539Z,17.44
2022-11-16T20:47:34.030Z,17.45
2022-11-16T20:50:35.528Z,17.47
2022-11-16T20:53:37.543Z,17.48
2022-11-16T20:56:39.252Z,17.48
2022-11-16T20:59:40.718Z,17.49
2022-11-16T21:02:42.230Z,17.50
2022-11-16T21:05:45.164Z,17.52
2022-11-16T21:08:46.673Z,17.52
2022-11-16T21:12:07.457Z,17.52
2022-11-16T21:15:09.333Z,17.52
2022-11-16T21:18:10.836Z,17.53
2022-11-16T21:21:13.600Z,17.55
2022-11-16T21:24:15.140Z,17.55
2022-11-16T21:27:16.652Z,17.56
2022-11-16T21:30:18.253Z,17.57
2022-11-16T21:33:19.781Z,17.57
2022-11-16T21:36:23.851Z,17.59
2022-11-16T21:39:25.432Z,17.58
2022-11-16T21:42:26.955Z,17.60
2022-11-16T21:45:28.478Z,17.60
2022-11-16T21:48:34.333Z,17.62
2022-11-16T21:51:35.796Z,17.62
2022-11-16T21:54:55.870Z,17.59
2022-11-16T21:58:00.649Z,17.61
2022-11-16T22:01:02.438Z,17.59
2022-11-16T22:04:22.639Z,17.52
2022-11-16T22:07:33.096Z,17.46
2022-11-16T22:10:35.297Z,17.42
2022-11-16T22:13:38.167Z,17.37
2022-11-16T22:16:39.689Z,17.34
2022-11-16T22:19:41.170Z,17.32
2022-11-16T22:22:42.669Z,17.29
2022-11-16T22:25:44.448Z,17.28
2022-11-16T22:28:46.203Z,17.25
2022-11-16T22:31:47.674Z,17.23
2022-11-16T22:34:51.259Z,17.21
2022-11-16T22:37:52.828Z,17.19
2022-11-16T22:40:57.772Z,17.21
2022-11-16T22:43:59.294Z,17.17
2022-11-16T22:47:00.839Z,17.15
2022-11-16T22:50:03.292Z,17.15
2022-11-16T22:53:04.794Z,17.12
2022-11-16T22:56:07.723Z,17.12
2022-11-16T22:59:09.902Z,17.10
2022-11-16T23:02:11.406Z,17.08
2022-11-16T23:05:12.948Z,17.07
2022-11-16T23:08:14.430Z,17.06
2022-11-16T23:11:40.262Z,17.05
2022-11-16T23:15:00.375Z,17.02
2022-11-16T23:18:01.896Z,17.01
2022-11-16T23:21:22.267Z,16.99
2022-11-16T23:24:42.051Z,16.98
2022-11-16T23:27:53.188Z,16.97
2022-11-16T23:30:54.677Z,16.94
2022-11-16T23:33:56.204Z,16.92
2022-11-16T23:37:07.570Z,16.92
2022-11-16T23:40:09.667Z,16.89
2022-11-16T23:43:30.163Z,16.88
2022-11-16T23:46:32.724Z,16.88
2022-11-16T23:49:34.258Z,16.85
2022-11-16T23:52:35.740Z,16.83
2022-11-16T23:55:39.036Z,16.83
2022-11-16T23:58:40.551Z,16.82
